WMT736 LIRF-LKPR
Flight info
| Callsign | WMT736 |
|---|---|
| Flight time | N/A |
| Altitude | 18000 |
| Route | SOVAN L995 AMTEL/N0454F340 DCT GAVRA DCT EKTUK DCT LOBSI DCT CHI/N0452F350 DCT OBEDI DCT NEMAL DCT MEDEL DCT APRAQ |
| Aircraft | A321/M-SDE3FGHIRWY/LB1 |
Departure
| Time | 2026-05-01 10:46 |
|---|---|
| Airport | Rome–Fiumicino Leonardo da Vinci International Airport (LIRF) |
Arrival
| Time | N/A |
|---|---|
| Airport | Václav Havel Airport Prague (LKPR) |
| Time | Latitude | Longitude | Altitude | Speed | Heading |
|---|---|---|---|---|---|
| 2026-05-01 10:31 | 41.78886 | 12.24697 | 15 ft | 0 kts | 84° |
| 2026-05-01 10:32 | 41.78885 | 12.24675 | 43 ft | 4 kts | 101° |
| 2026-05-01 10:32 | 41.78896 | 12.24645 | 16 ft | 4 kts | 147° |
| 2026-05-01 10:32 | 41.78911 | 12.24637 | 16 ft | 0 kts | 174° |
| 2026-05-01 10:35 | 41.78894 | 12.24639 | 15 ft | 5 kts | 175° |
| 2026-05-01 10:35 | 41.78840 | 12.24646 | 15 ft | 11 kts | 174° |
| 2026-05-01 10:35 | 41.78784 | 12.24596 | 15 ft | 12 kts | 253° |
| 2026-05-01 10:35 | 41.78756 | 12.24480 | 15 ft | 14 kts | 252° |
| 2026-05-01 10:36 | 41.78694 | 12.24217 | 15 ft | 16 kts | 252° |
| 2026-05-01 10:36 | 41.78605 | 12.24197 | 16 ft | 15 kts | 162° |
| 2026-05-01 10:36 | 41.78505 | 12.24240 | 15 ft | 16 kts | 162° |
| 2026-05-01 10:37 | 41.78399 | 12.24284 | 15 ft | 16 kts | 162° |
| 2026-05-01 10:37 | 41.78303 | 12.24181 | 15 ft | 0 kts | 250° |
| 2026-05-01 10:42 | 41.78302 | 12.24180 | 15 ft | 1 kts | 250° |
| 2026-05-01 10:42 | 41.78297 | 12.24159 | 17 ft | 4 kts | 251° |
| 2026-05-01 10:42 | 41.78279 | 12.24086 | 15 ft | 10 kts | 252° |
| 2026-05-01 10:42 | 41.78282 | 12.24012 | 17 ft | 8 kts | 315° |
| 2026-05-01 10:43 | 41.78305 | 12.23997 | 17 ft | 0 kts | 340° |
| 2026-05-01 10:45 | 41.78307 | 12.23996 | 17 ft | 4 kts | 340° |
| 2026-05-01 10:45 | 41.78583 | 12.23879 | 17 ft | 78 kts | 342° |
| 2026-05-01 10:45 | 41.79313 | 12.23574 | 16 ft | 138 kts | 342° |
| 2026-05-01 10:45 | 41.80365 | 12.23128 | 210 ft | 166 kts | 344° |
| 2026-05-01 10:46 | 41.81458 | 12.22669 | 914 ft | 165 kts | 345° |
| 2026-05-01 10:46 | 41.82436 | 12.21873 | 1570 ft | 177 kts | 310° |
| 2026-05-01 10:46 | 41.82709 | 12.20228 | 2032 ft | 196 kts | 263° |
| 2026-05-01 10:46 | 41.82353 | 12.18350 | 2303 ft | 217 kts | 263° |
| 2026-05-01 10:47 | 41.82358 | 12.16243 | 2430 ft | 238 kts | 279° |
| 2026-05-01 10:47 | 41.82625 | 12.13943 | 2725 ft | 259 kts | 283° |
| 2026-05-01 10:47 | 41.82976 | 12.11528 | 3411 ft | 266 kts | 284° |
| 2026-05-01 10:47 | 41.83336 | 12.09070 | 4184 ft | 270 kts | 283° |
| 2026-05-01 10:48 | 41.83686 | 12.06577 | 4957 ft | 275 kts | 283° |
| 2026-05-01 10:48 | 41.84026 | 12.04037 | 5683 ft | 279 kts | 282° |
| 2026-05-01 10:48 | 41.84342 | 12.01560 | 6437 ft | 281 kts | 283° |
| 2026-05-01 10:48 | 41.84666 | 11.98938 | 7157 ft | 285 kts | 283° |
| 2026-05-01 10:49 | 41.84987 | 11.96294 | 7897 ft | 287 kts | 283° |
| 2026-05-01 10:49 | 41.85303 | 11.93644 | 8663 ft | 289 kts | 283° |
| 2026-05-01 10:49 | 41.85618 | 11.90974 | 9426 ft | 290 kts | 283° |
| 2026-05-01 10:49 | 41.85934 | 11.88293 | 10193 ft | 292 kts | 284° |
| 2026-05-01 10:50 | 41.86259 | 11.85568 | 10650 ft | 305 kts | 284° |
| 2026-05-01 10:50 | 41.86616 | 11.82655 | 10781 ft | 328 kts | 284° |
| 2026-05-01 10:50 | 41.87141 | 11.79600 | 10909 ft | 342 kts | 297° |
| 2026-05-01 10:50 | 41.88443 | 11.76955 | 11330 ft | 341 kts | 319° |
| 2026-05-01 10:51 | 41.90377 | 11.75186 | 11936 ft | 336 kts | 340° |
| 2026-05-01 10:51 | 41.92601 | 11.74457 | 12583 ft | 334 kts | 358° |
| 2026-05-01 10:51 | 41.94890 | 11.74652 | 13274 ft | 335 kts | 7° |
| 2026-05-01 10:51 | 41.97215 | 11.75027 | 13982 ft | 336 kts | 7° |
| 2026-05-01 10:52 | 41.99541 | 11.75412 | 14628 ft | 338 kts | 7° |
| 2026-05-01 10:52 | 42.01891 | 11.75802 | 15255 ft | 340 kts | 7° |
| 2026-05-01 10:52 | 42.04254 | 11.76191 | 15921 ft | 341 kts | 7° |
| 2026-05-01 10:52 | 42.06592 | 11.76569 | 16559 ft | 343 kts | 7° |
| 2026-05-01 10:53 | 42.08947 | 11.76948 | 17207 ft | 344 kts | 7° |
| 2026-05-01 10:53 | 42.11313 | 11.77332 | 17844 ft | 346 kts | 7° |
| 2026-05-01 10:53 | 42.13707 | 11.77719 | 18473 ft | 348 kts | 7° |
| 2026-05-01 10:53 | 42.16116 | 11.78108 | 19019 ft | 350 kts | 7° |
| 2026-05-01 10:54 | 42.18511 | 11.78496 | 19572 ft | 352 kts | 7° |
| 2026-05-01 10:54 | 42.20959 | 11.78893 | 20094 ft | 354 kts | 7° |
| 2026-05-01 10:54 | 42.23398 | 11.79288 | 20610 ft | 356 kts | 7° |
| 2026-05-01 10:54 | 42.25856 | 11.79688 | 21118 ft | 359 kts | 7° |
| 2026-05-01 10:55 | 42.28353 | 11.80095 | 21624 ft | 361 kts | 7° |
| 2026-05-01 10:55 | 42.30858 | 11.80507 | 22103 ft | 363 kts | 7° |
| 2026-05-01 10:55 | 42.33349 | 11.80915 | 22570 ft | 365 kts | 7° |